Time;durP1;ratioP1;P1;durP2;ratioP2;P2;SDS_P1;SDS_P2;PMS_P1;PMS_P2;Temp;Humidity;BMP_temperature;BMP_pressure;BME280_temperature;BME280_humidity;BME280_pressure;Samples;Min_cycle;Max_cycle;Signal;HPM_P1;HPM_P2
2021/06/08 00:00:12;;;;;;;2.00;1.42;;;22.00;56.10;;;;;;5094626;28;20616;-64
2021/06/08 00:02:37;;;;;;;1.55;1.45;;;22.00;56.20;;;;;;5094668;28;20265;-65
2021/06/08 00:05:06;;;;;;;1.55;1.23;;;22.00;56.20;;;;;;5095536;28;20274;-65
2021/06/08 00:07:31;;;;;;;2.13;1.20;;;22.00;56.10;;;;;;5095391;28;20328;-65
2021/06/08 00:09:57;;;;;;;1.42;1.30;;;22.00;56.20;;;;;;5094602;28;20264;-65
2021/06/08 00:12:22;;;;;;;1.50;1.40;;;22.00;56.20;;;;;;5095359;28;20172;-64
2021/06/08 00:14:48;;;;;;;2.17;1.27;;;22.00;56.20;;;;;;5095152;28;20508;-64
2021/06/08 00:17:13;;;;;;;1.98;1.40;;;22.00;56.20;;;;;;5094441;28;20663;-65
2021/06/08 00:19:39;;;;;;;3.10;1.30;;;22.00;56.20;;;;;;5094883;28;20283;-64
2021/06/08 00:22:04;;;;;;;1.60;1.50;;;22.00;56.20;;;;;;5095178;28;20211;-64
2021/06/08 00:24:30;;;;;;;1.25;1.20;;;22.00;56.20;;;;;;5094499;28;20166;-64
2021/06/08 00:26:55;;;;;;;1.25;1.15;;;22.00;56.20;;;;;;5094852;28;20219;-64
2021/06/08 00:29:21;;;;;;;1.52;1.38;;;22.00;56.20;;;;;;5095145;28;20188;-64
2021/06/08 00:31:47;;;;;;;2.45;1.40;;;22.00;56.30;;;;;;5094088;28;20170;-65
2021/06/08 00:34:12;;;;;;;1.20;1.20;;;21.90;56.20;;;;;;5094918;28;20181;-65
2021/06/08 00:36:38;;;;;;;1.42;1.33;;;21.90;56.10;;;;;;5094503;28;20166;-65
2021/06/08 00:39:04;;;;;;;1.45;1.35;;;21.90;56.20;;;;;;5094110;28;20173;-65
2021/06/08 00:41:37;;;;;;;1.42;1.33;;;21.90;56.20;;;;;;5094857;28;20166;-65
2021/06/08 00:44:05;;;;;;;2.15;1.52;;;21.90;56.20;;;;;;5094786;28;20189;-65
2021/06/08 00:46:31;;;;;;;1.42;1.33;;;21.90;56.20;;;;;;5093930;28;20181;-65
2021/06/08 00:48:56;;;;;;;1.25;1.15;;;21.90;56.20;;;;;;5094735;28;20182;-65
2021/06/08 00:51:22;;;;;;;1.70;1.55;;;21.90;56.20;;;;;;5094023;28;20265;-65
2021/06/08 00:53:48;;;;;;;1.70;1.60;;;21.90;56.20;;;;;;5094313;28;20170;-65
2021/06/08 00:56:13;;;;;;;1.30;1.20;;;21.90;56.20;;;;;;5094379;28;20224;-64
2021/06/08 00:58:39;;;;;;;1.50;1.40;;;21.90;56.20;;;;;;5093499;28;20691;-64
2021/06/08 01:01:04;;;;;;;1.27;1.17;;;21.90;56.10;;;;;;5094655;28;20170;-64
2021/06/08 01:03:32;;;;;;;1.33;1.20;;;21.90;56.20;;;;;;5094071;28;20177;-64
2021/06/08 01:06:00;;;;;;;1.48;1.25;;;21.90;56.10;;;;;;5093898;28;20180;-65
2021/06/08 01:08:26;;;;;;;1.75;1.23;;;21.90;56.20;;;;;;5094213;28;20248;-65
2021/06/08 01:10:51;;;;;;;1.48;1.38;;;21.90;56.10;;;;;;5093634;28;20253;-64
2021/06/08 01:13:17;;;;;;;1.77;1.60;;;21.80;56.10;;;;;;5093434;28;20571;-64
2021/06/08 01:15:42;;;;;;;1.80;1.50;;;21.80;56.10;;;;;;5093953;28;20166;-64
2021/06/08 01:18:08;;;;;;;1.40;1.40;;;21.80;56.10;;;;;;5093980;28;20209;-64
2021/06/08 01:20:34;;;;;;;2.60;1.30;;;21.80;56.10;;;;;;5092914;28;20225;-65
2021/06/08 01:22:59;;;;;;;2.38;1.55;;;21.80;56.10;;;;;;5092876;28;20525;-64
2021/06/08 01:25:25;;;;;;;1.30;1.25;;;21.80;56.10;;;;;;5094075;28;20319;-64
2021/06/08 01:27:51;;;;;;;1.40;1.30;;;21.80;56.10;;;;;;5092846;28;20238;-64
2021/06/08 01:30:16;;;;;;;1.38;1.20;;;21.80;56.10;;;;;;5092919;28;20655;-65
2021/06/08 01:32:42;;;;;;;1.48;1.35;;;21.80;56.80;;;;;;5093768;28;20174;-65
2021/06/08 01:35:09;;;;;;;1.40;1.30;;;21.80;56.10;;;;;;5093032;28;20230;-65
2021/06/08 01:37:35;;;;;;;2.55;1.30;;;21.80;56.10;;;;;;5093488;28;20209;-65
2021/06/08 01:40:01;;;;;;;1.38;1.20;;;21.80;56.10;;;;;;5092374;28;20177;-65
2021/06/08 01:42:26;;;;;;;1.60;1.40;;;21.80;56.20;;;;;;5091939;28;20173;-64
2021/06/08 01:44:52;;;;;;;1.50;1.40;;;21.80;56.20;;;;;;5092248;28;20188;-65
2021/06/08 01:47:17;;;;;;;1.40;1.30;;;21.80;56.10;;;;;;5093598;28;20627;-65
2021/06/08 01:49:43;;;;;;;1.60;1.50;;;21.80;56.10;;;;;;5092649;28;20216;-65
2021/06/08 01:52:41;;;;;;;2.53;1.65;;;21.80;56.20;;;;;;5093549;28;20174;-64
2021/06/08 01:55:19;;;;;;;1.33;1.25;;;21.70;56.10;;;;;;5091690;28;20170;-64
2021/06/08 01:57:50;;;;;;;1.42;1.33;;;21.70;56.10;;;;;;5091986;28;20213;-64
2021/06/08 02:00:17;;;;;;;1.67;1.58;;;21.70;56.10;;;;;;5092109;28;20178;-64
2021/06/08 02:03:04;;;;;;;1.25;1.15;;;21.80;56.20;;;;;;5091140;28;20181;-65
2021/06/08 02:05:53;;;;;;;2.00;1.30;;;21.70;56.10;;;;;;5092260;28;20246;-65
2021/06/08 02:08:38;;;;;;;1.42;1.33;;;21.70;56.10;;;;;;5092192;28;20251;-64
2021/06/08 02:11:08;;;;;;;1.75;1.60;;;21.70;56.10;;;;;;5091966;28;20184;-64
2021/06/08 02:13:53;;;;;;;1.52;1.42;;;21.70;56.10;;;;;;5091847;28;20180;-64
2021/06/08 02:16:42;;;;;;;1.52;1.42;;;21.70;56.20;;;;;;5090633;28;20177;-64
2021/06/08 02:19:10;;;;;;;1.30;1.20;;;21.70;56.10;;;;;;5091645;28;20237;-64
2021/06/08 02:21:39;;;;;;;1.63;1.52;;;21.70;56.20;;;;;;5091540;28;20178;-64
2021/06/08 02:24:05;;;;;;;1.75;1.50;;;21.70;56.10;;;;;;5090983;28;20693;-64
2021/06/08 02:26:31;;;;;;;2.33;1.70;;;21.70;56.10;;;;;;5091436;28;20177;-64
2021/06/08 02:28:56;;;;;;;1.52;1.42;;;21.70;56.10;;;;;;5091690;28;20180;-64
2021/06/08 02:31:23;;;;;;;1.80;1.70;;;21.70;56.10;;;;;;5091204;28;20538;-65
2021/06/08 02:33:48;;;;;;;2.10;1.60;;;21.70;56.20;;;;;;5091430;28;20654;-65
2021/06/08 02:36:14;;;;;;;1.88;1.10;;;21.70;56.10;;;;;;5091461;28;20268;-64
2021/06/08 02:38:42;;;;;;;1.40;1.30;;;21.60;56.10;;;;;;5091741;28;20315;-64
2021/06/08 02:41:07;;;;;;;1.52;1.42;;;21.70;56.20;;;;;;5091530;28;20178;-64
2021/06/08 02:43:34;;;;;;;2.17;1.70;;;21.60;56.20;;;;;;5092701;28;20180;-64
2021/06/08 02:46:00;;;;;;;1.63;1.52;;;21.70;56.20;;;;;;5091049;28;20210;-64
2021/06/08 02:48:25;;;;;;;1.60;1.50;;;21.60;56.20;;;;;;5091597;28;20201;-64
2021/06/08 02:50:51;;;;;;;1.70;1.60;;;21.60;56.20;;;;;;5090273;28;20231;-64
2021/06/08 02:53:16;;;;;;;1.60;1.50;;;21.60;56.20;;;;;;5091234;28;20562;-64
2021/06/08 02:55:42;;;;;;;1.73;1.63;;;21.60;56.20;;;;;;5091296;28;20231;-63
2021/06/08 02:58:07;;;;;;;2.05;1.58;;;21.60;56.20;;;;;;5090705;28;20213;-63
2021/06/08 03:00:33;;;;;;;1.80;1.70;;;21.60;56.20;;;;;;5091135;28;20254;-64
2021/06/08 03:02:59;;;;;;;1.58;1.42;;;21.60;56.20;;;;;;5091283;28;20642;-65
2021/06/08 03:05:30;;;;;;;1.77;1.60;;;21.60;56.10;;;;;;5090755;28;20170;-64
2021/06/08 03:08:01;;;;;;;1.80;1.70;;;21.60;56.20;;;;;;5091299;28;20192;-64
2021/06/08 03:10:28;;;;;;;2.20;1.52;;;21.60;56.20;;;;;;5091363;28;20174;-64
2021/06/08 03:12:55;;;;;;;1.52;1.42;;;21.60;56.20;;;;;;5090176;28;20178;-63
2021/06/08 03:15:38;;;;;;;1.67;1.58;;;21.60;56.20;;;;;;5091211;28;20619;-64
2021/06/08 03:18:08;;;;;;;2.25;1.67;;;21.60;56.30;;;;;;5090984;28;20221;-64
2021/06/08 03:21:10;;;;;;;1.92;1.83;;;21.60;56.30;;;;;;5091242;28;20698;-64
2021/06/08 03:23:41;;;;;;;1.65;1.55;;;21.60;56.20;;;;;;5049722;28;20655;-64
2021/06/08 03:26:07;;;;;;;2.15;1.95;;;21.60;56.20;;;;;;5090742;28;20258;-63
2021/06/08 03:28:35;;;;;;;1.83;1.73;;;21.60;56.20;;;;;;5094831;28;20574;-64
2021/06/08 03:31:01;;;;;;;1.60;1.50;;;21.60;56.20;;;;;;5095107;28;20177;-64
2021/06/08 03:33:26;;;;;;;1.65;1.55;;;21.50;56.20;;;;;;5094404;28;20685;-64
2021/06/08 03:35:53;;;;;;;2.03;1.83;;;21.50;56.20;;;;;;5095824;28;20185;-65
2021/06/08 03:38:18;;;;;;;1.70;1.60;;;21.60;56.20;;;;;;5095047;28;20228;-64
2021/06/08 03:40:44;;;;;;;2.47;1.80;;;21.50;56.20;;;;;;5093585;28;20531;-64
2021/06/08 03:43:09;;;;;;;1.48;1.38;;;21.60;56.20;;;;;;5095103;28;20174;-64
2021/06/08 03:45:35;;;;;;;2.47;1.83;;;21.50;56.20;;;;;;5094754;28;20169;-65
2021/06/08 03:48:02;;;;;;;2.25;2.00;;;21.50;56.20;;;;;;5093992;28;20174;-65
2021/06/08 03:50:27;;;;;;;1.90;1.75;;;21.50;56.20;;;;;;5094854;28;20177;-65
2021/06/08 03:52:55;;;;;;;1.83;1.73;;;21.50;56.20;;;;;;5094244;28;20540;-64
2021/06/08 03:55:23;;;;;;;1.58;1.48;;;21.50;56.20;;;;;;5093878;28;20660;-64
2021/06/08 03:57:51;;;;;;;1.70;1.60;;;21.50;56.20;;;;;;5095585;28;20220;-64
2021/06/08 04:00:17;;;;;;;1.60;1.50;;;21.60;56.20;;;;;;5094591;28;20178;-64
2021/06/08 04:02:42;;;;;;;2.00;1.90;;;21.50;56.10;;;;;;5093632;28;20265;-65
2021/06/08 04:05:09;;;;;;;2.00;1.80;;;21.50;56.10;;;;;;5094311;28;20166;-65
2021/06/08 04:07:34;;;;;;;2.00;1.90;;;21.50;56.10;;;;;;5095226;28;20230;-65
2021/06/08 04:10:00;;;;;;;1.73;1.63;;;21.60;56.10;;;;;;5093359;28;20528;-64
2021/06/08 04:12:25;;;;;;;1.98;1.80;;;21.50;56.10;;;;;;5095459;28;20571;-64
2021/06/08 04:14:51;;;;;;;1.80;1.70;;;21.60;56.10;;;;;;5095026;28;20513;-64
2021/06/08 04:17:17;;;;;;;1.92;1.80;;;21.60;56.10;;;;;;5093496;28;20213;-64
2021/06/08 04:19:43;;;;;;;1.58;1.48;;;21.60;56.10;;;;;;5095817;28;20221;-64
2021/06/08 04:22:09;;;;;;;1.92;1.70;;;21.60;56.10;;;;;;5096139;28;20204;-64
2021/06/08 04:24:34;;;;;;;1.70;1.60;;;21.60;56.10;;;;;;5095273;28;20615;-64
2021/06/08 04:27:00;;;;;;;1.80;1.70;;;21.60;56.10;;;;;;5094549;28;20230;-64
2021/06/08 04:29:27;;;;;;;1.80;1.70;;;21.60;56.00;;;;;;5093615;28;20612;-64
2021/06/08 04:31:54;;;;;;;2.35;1.80;;;21.60;56.00;;;;;;5093846;28;20700;-65
2021/06/08 04:34:19;;;;;;;1.70;1.60;;;21.60;56.00;;;;;;5094284;28;20170;-65
2021/06/08 04:36:46;;;;;;;1.80;1.70;;;21.60;56.10;;;;;;5094265;28;20174;-65
2021/06/08 04:39:12;;;;;;;1.70;1.60;;;21.60;56.00;;;;;;5093106;28;20190;-64
2021/06/08 04:41:39;;;;;;;1.70;1.60;;;21.60;56.00;;;;;;5095058;28;20650;-65
2021/06/08 04:44:05;;;;;;;2.35;1.70;;;21.60;56.00;;;;;;5094478;28;20208;-65
2021/06/08 04:46:31;;;;;;;1.88;1.77;;;21.60;56.00;;;;;;5094760;28;20194;-64
2021/06/08 04:48:56;;;;;;;2.08;1.75;;;21.60;56.00;;;;;;5093806;28;20166;-65
2021/06/08 04:51:22;;;;;;;2.10;1.90;;;21.60;56.00;;;;;;5094062;28;20173;-65
2021/06/08 04:53:48;;;;;;;2.15;1.60;;;21.60;56.00;;;;;;5093176;28;20718;-64
2021/06/08 04:56:13;;;;;;;1.70;1.60;;;21.60;56.00;;;;;;5094945;28;20181;-64
2021/06/08 04:58:39;;;;;;;1.60;1.40;;;21.60;56.00;;;;;;5093762;28;20212;-65
2021/06/08 05:01:25;;;;;;;2.15;1.95;;;21.60;56.00;;;;;;5093442;28;20162;-65
2021/06/08 05:03:53;;;;;;;2.00;1.80;;;21.60;56.00;;;;;;5094349;28;20197;-65
2021/06/08 05:06:22;;;;;;;1.80;1.70;;;21.60;56.00;;;;;;5092645;28;20182;-65
2021/06/08 05:08:53;;;;;;;1.92;1.83;;;21.60;56.00;;;;;;5093093;28;20185;-65
2021/06/08 05:11:54;;;;;;;2.08;1.98;;;21.60;56.00;;;;;;5093248;28;20180;-64
2021/06/08 05:14:20;;;;;;;1.70;1.60;;;21.60;56.00;;;;;;5087515;28;20192;-64
2021/06/08 05:16:46;;;;;;;1.80;1.70;;;21.60;56.00;;;;;;5093013;28;20165;-65
2021/06/08 05:19:12;;;;;;;1.70;1.60;;;21.60;56.00;;;;;;5092272;28;20255;-64
2021/06/08 05:21:44;;;;;;;1.75;1.55;;;21.60;56.00;;;;;;5093856;28;20648;-64
2021/06/08 05:24:10;;;;;;;1.90;1.58;;;21.60;56.00;;;;;;5093115;28;20189;-64
2021/06/08 05:26:37;;;;;;;1.65;1.55;;;21.60;56.00;;;;;;5093162;28;20182;-64
2021/06/08 05:29:03;;;;;;;1.83;1.73;;;21.60;56.00;;;;;;5092823;28;20178;-65
2021/06/08 05:31:28;;;;;;;1.75;1.65;;;21.60;56.00;;;;;;5094280;28;20234;-66
2021/06/08 05:33:57;;;;;;;2.45;1.52;;;21.60;56.00;;;;;;5091928;28;20588;-66
2021/06/08 05:36:27;;;;;;;1.50;1.40;;;21.60;56.00;;;;;;5094091;28;20257;-66
2021/06/08 05:38:53;;;;;;;1.70;1.60;;;21.60;56.00;;;;;;5093632;28;20281;-65
2021/06/08 05:41:18;;;;;;;1.67;1.58;;;21.60;56.00;;;;;;5091948;28;20691;-65
2021/06/08 05:43:44;;;;;;;1.60;1.50;;;21.60;56.00;;;;;;5093297;28;20666;-65
2021/06/08 05:46:10;;;;;;;1.50;1.40;;;21.60;56.00;;;;;;5093618;28;20231;-65
2021/06/08 05:48:36;;;;;;;1.60;1.50;;;21.60;56.00;;;;;;5092762;28;20173;-66
2021/06/08 05:51:02;;;;;;;1.52;1.42;;;21.60;56.00;;;;;;5093712;28;20227;-65
2021/06/08 05:53:28;;;;;;;1.60;1.50;;;21.60;55.90;;;;;;5093723;28;20193;-65
2021/06/08 05:55:54;;;;;;;1.42;1.33;;;21.60;56.00;;;;;;5091446;28;20178;-65
2021/06/08 05:58:27;;;;;;;1.60;1.40;;;21.60;56.00;;;;;;5093382;28;20242;-64
2021/06/08 06:00:53;;;;;;;1.50;1.40;;;21.60;55.90;;;;;;5092805;28;20169;-65
2021/06/08 06:03:19;;;;;;;1.52;1.42;;;21.60;55.90;;;;;;5093587;28;20185;-65
2021/06/08 06:05:45;;;;;;;1.67;1.58;;;21.60;55.90;;;;;;5092007;28;20173;-65
2021/06/08 06:08:11;;;;;;;1.48;1.40;;;21.60;55.90;;;;;;5091675;28;20176;-66
2021/06/08 06:10:37;;;;;;;1.45;1.35;;;21.60;55.90;;;;;;5091855;28;20184;-64
2021/06/08 06:13:07;;;;;;;1.48;1.38;;;21.60;55.90;;;;;;5092295;28;20170;-65
2021/06/08 06:15:32;;;;;;;1.40;1.30;;;21.60;55.90;;;;;;5090990;28;20178;-65
2021/06/08 06:17:58;;;;;;;1.70;1.60;;;21.60;56.00;;;;;;5092073;28;20255;-65
2021/06/08 06:20:38;;;;;;;2.35;1.50;;;21.60;55.90;;;;;;5069547;28;20221;-65
2021/06/08 06:23:04;;;;;;;1.50;1.40;;;21.70;56.00;;;;;;5091280;28;20542;-64
2021/06/08 06:25:29;;;;;;;1.73;1.63;;;21.70;56.00;;;;;;5093136;28;20207;-65
2021/06/08 06:27:55;;;;;;;1.42;1.35;;;21.60;55.90;;;;;;5093411;28;20200;-64
2021/06/08 06:30:21;;;;;;;1.60;1.50;;;21.60;55.90;;;;;;5091042;28;20600;-65
2021/06/08 06:32:46;;;;;;;2.38;1.45;;;21.70;56.00;;;;;;5091677;28;20260;-66
2021/06/08 06:35:12;;;;;;;1.45;1.38;;;21.70;56.00;;;;;;5093172;28;20174;-66
2021/06/08 06:37:38;;;;;;;1.50;1.40;;;21.70;56.00;;;;;;5091829;28;20221;-65
2021/06/08 06:40:10;;;;;;;1.60;1.50;;;21.70;55.90;;;;;;5092960;28;20173;-66
2021/06/08 06:42:44;;;;;;;1.50;1.40;;;21.70;55.90;;;;;;5092855;28;20177;-65
2021/06/08 06:45:13;;;;;;;1.23;1.23;;;21.70;56.00;;;;;;5091212;28;20207;-65
2021/06/08 06:47:38;;;;;;;1.55;1.45;;;21.70;55.90;;;;;;5102627;28;20165;-65
2021/06/08 06:50:06;;;;;;;1.77;1.67;;;21.70;55.90;;;;;;5111178;28;20169;-65
2021/06/08 06:52:32;;;;;;;1.55;1.45;;;21.70;56.00;;;;;;5111444;28;20271;-65
2021/06/08 06:54:58;;;;;;;1.95;1.52;;;21.70;56.00;;;;;;5111944;28;20719;-65
2021/06/08 06:57:23;;;;;;;1.25;1.15;;;21.70;55.90;;;;;;5111201;28;20292;-64
2021/06/08 06:59:49;;;;;;;1.40;1.30;;;21.70;56.00;;;;;;5113081;28;20435;-65
2021/06/08 07:02:15;;;;;;;1.80;1.70;;;21.80;56.10;;;;;;5114458;28;20264;-64
2021/06/08 07:04:41;;;;;;;1.65;1.55;;;21.80;56.20;;;;;;5115146;28;20177;-65
2021/06/08 07:07:09;;;;;;;1.65;1.55;;;21.80;56.10;;;;;;5116088;28;20173;-63
2021/06/08 07:09:35;;;;;;;1.75;1.60;;;21.80;56.10;;;;;;5115957;28;20256;-63
2021/06/08 07:12:00;;;;;;;1.65;1.55;;;21.90;56.10;;;;;;5115437;28;20173;-63
2021/06/08 07:14:27;;;;;;;1.70;1.60;;;21.90;56.20;;;;;;5115882;28;20634;-63
2021/06/08 07:16:55;;;;;;;2.05;1.73;;;21.90;56.20;;;;;;5115494;28;20177;-65
2021/06/08 07:19:30;;;;;;;2.08;1.60;;;21.90;56.20;;;;;;5116265;28;20177;-64
2021/06/08 07:21:55;;;;;;;1.63;1.52;;;21.90;56.30;;;;;;5115742;28;20220;-64
2021/06/08 07:24:21;;;;;;;1.77;1.65;;;21.90;56.20;;;;;;5115882;28;20184;-64
2021/06/08 07:26:47;;;;;;;3.13;1.80;;;21.90;56.20;;;;;;5114992;28;20173;-64
2021/06/08 07:29:13;;;;;;;1.80;1.70;;;21.90;56.30;;;;;;5116909;28;20631;-64
2021/06/08 07:31:51;;;;;;;2.28;1.50;;;21.90;56.30;;;;;;5115464;28;20238;-65
2021/06/08 07:34:34;;;;;;;2.22;1.85;;;21.90;56.30;;;;;;5115056;28;20176;-64
2021/06/08 07:36:59;;;;;;;2.00;1.90;;;21.90;56.30;;;;;;5115294;28;20185;-65
2021/06/08 07:39:28;;;;;;;1.95;1.75;;;21.90;56.30;;;;;;5114854;28;20173;-64
2021/06/08 07:41:57;;;;;;;2.25;1.63;;;21.90;56.20;;;;;;5115254;28;20174;-65
2021/06/08 07:44:31;;;;;;;2.28;1.60;;;21.90;56.20;;;;;;5116463;28;20169;-65
2021/06/08 07:47:00;;;;;;;1.80;1.52;;;21.90;56.20;;;;;;5114843;28;20187;-65
2021/06/08 07:49:25;;;;;;;2.55;1.75;;;21.90;56.10;;;;;;5115350;28;20245;-65
2021/06/08 07:51:51;;;;;;;2.42;1.73;;;22.00;56.20;;;;;;5115446;28;20269;-65
2021/06/08 07:54:16;;;;;;;2.85;1.60;;;22.00;56.20;;;;;;5114383;28;20540;-65
2021/06/08 07:56:42;;;;;;;1.92;1.80;;;22.00;56.10;;;;;;5114888;28;20256;-64
2021/06/08 07:59:13;;;;;;;2.08;1.60;;;22.00;56.10;;;;;;5115401;28;20572;-64
2021/06/08 08:01:39;;;;;;;2.22;1.58;;;22.00;56.10;;;;;;5114234;28;20177;-65
2021/06/08 08:04:08;;;;;;;1.75;1.65;;;22.00;56.10;;;;;;5115219;28;20184;-65
2021/06/08 08:06:34;;;;;;;2.42;1.63;;;22.00;56.20;;;;;;5115930;28;20615;-65
2021/06/08 08:09:00;;;;;;;1.77;1.60;;;22.00;56.10;;;;;;5114363;28;20647;-65
2021/06/08 08:11:27;;;;;;;1.90;1.80;;;22.00;56.10;;;;;;5114839;28;20200;-64
2021/06/08 08:13:52;;;;;;;4.10;2.03;;;22.10;56.20;;;;;;5113236;28;20180;-64
2021/06/08 08:16:18;;;;;;;2.10;1.88;;;22.10;56.20;;;;;;5114134;28;20230;-65
2021/06/08 08:18:44;;;;;;;1.50;1.40;;;22.10;56.20;;;;;;5115739;28;20209;-64
2021/06/08 08:21:12;;;;;;;1.83;1.73;;;22.10;56.10;;;;;;5115164;28;20223;-65
2021/06/08 08:23:38;;;;;;;2.10;1.70;;;22.10;56.10;;;;;;5114968;28;20176;-64
2021/06/08 08:26:05;;;;;;;1.83;1.55;;;22.10;56.10;;;;;;5116160;28;20535;-64
2021/06/08 08:28:34;;;;;;;1.90;1.60;;;22.10;56.10;;;;;;5114790;28;20173;-64
2021/06/08 08:31:00;;;;;;;2.75;1.80;;;22.10;56.10;;;;;;5116033;28;20180;-65
2021/06/08 08:33:27;;;;;;;1.90;1.77;;;22.20;56.20;;;;;;5115472;28;20734;-65
2021/06/08 08:35:53;;;;;;;2.22;1.55;;;22.20;56.20;;;;;;5114597;28;20170;-65
2021/06/08 08:38:18;;;;;;;1.88;1.70;;;22.20;56.20;;;;;;5114979;28;20304;-65
2021/06/08 08:40:44;;;;;;;2.80;1.83;;;22.20;56.20;;;;;;5115200;28;20266;-65
2021/06/08 08:43:09;;;;;;;1.70;1.60;;;22.20;56.20;;;;;;5115053;28;20773;-65
2021/06/08 08:45:35;;;;;;;2.08;1.75;;;22.20;56.20;;;;;;5114173;28;20165;-65
2021/06/08 08:48:01;;;;;;;2.85;1.92;;;22.20;56.20;;;;;;5115429;28;20200;-65
2021/06/08 08:50:26;;;;;;;2.10;1.88;;;22.30;56.20;;;;;;5114714;28;20180;-65
2021/06/08 08:52:58;;;;;;;2.83;1.98;;;22.30;56.10;;;;;;5115142;28;20222;-65
2021/06/08 08:55:27;;;;;;;2.08;1.88;;;22.30;56.20;;;;;;5114276;28;20177;-65
2021/06/08 08:57:54;;;;;;;2.20;1.60;;;22.30;56.20;;;;;;5114013;28;20702;-64
2021/06/08 09:00:21;;;;;;;2.10;1.70;;;22.30;56.10;;;;;;5115122;28;20209;-64
2021/06/08 09:02:48;;;;;;;2.08;1.90;;;22.30;56.10;;;;;;5115007;28;20186;-65
2021/06/08 09:05:13;;;;;;;3.15;1.92;;;22.30;56.10;;;;;;5113071;28;20177;-66
2021/06/08 09:07:39;;;;;;;2.00;1.73;;;22.30;56.10;;;;;;5114875;28;20264;-65
2021/06/08 09:10:08;;;;;;;2.42;1.80;;;22.40;56.20;;;;;;5113692;28;20169;-65
2021/06/08 09:12:35;;;;;;;2.42;1.90;;;22.40;56.10;;;;;;5114085;28;20173;-65
2021/06/08 09:15:01;;;;;;;3.08;2.00;;;22.40;56.20;;;;;;5114838;28;20665;-65
2021/06/08 09:17:26;;;;;;;2.20;2.00;;;22.40;56.10;;;;;;5114849;28;20283;-65
2021/06/08 09:19:52;;;;;;;2.13;1.92;;;22.40;56.10;;;;;;5112334;28;20665;-65
2021/06/08 09:22:17;;;;;;;2.28;2.08;;;22.40;56.10;;;;;;5114671;28;20176;-65
2021/06/08 09:24:43;;;;;;;1.92;1.75;;;22.40;56.10;;;;;;5113411;28;20199;-65
2021/06/08 09:27:09;;;;;;;2.20;2.00;;;22.40;56.00;;;;;;5114783;28;20200;-65
2021/06/08 09:29:37;;;;;;;1.98;1.77;;;22.50;56.10;;;;;;5114405;28;20189;-66
2021/06/08 09:32:21;;;;;;;3.33;2.28;;;22.50;56.00;;;;;;5113939;28;20181;-64
2021/06/08 09:34:55;;;;;;;2.78;1.95;;;22.50;56.00;;;;;;5114277;28;20195;-65
2021/06/08 09:37:35;;;;;;;2.00;1.80;;;22.50;56.00;;;;;;5114513;28;20216;-64
2021/06/08 09:40:01;;;;;;;3.72;2.13;;;22.50;56.10;;;;;;5113785;28;20181;-65
2021/06/08 09:42:30;;;;;;;2.92;1.80;;;22.60;56.20;;;;;;5111882;28;20518;-64
2021/06/08 09:45:09;;;;;;;2.17;1.95;;;22.60;56.10;;;;;;5113366;28;20181;-65
2021/06/08 09:47:34;;;;;;;2.38;2.15;;;22.60;56.10;;;;;;5113002;28;20204;-65
2021/06/08 09:50:00;;;;;;;2.05;1.73;;;22.60;56.10;;;;;;5114267;28;20665;-65
2021/06/08 09:52:25;;;;;;;2.95;2.03;;;22.60;56.10;;;;;;5114125;28;20173;-65
2021/06/08 09:54:56;;;;;;;2.30;1.88;;;22.60;56.10;;;;;;5113193;28;20218;-64
2021/06/08 09:57:28;;;;;;;2.05;1.80;;;22.60;56.00;;;;;;5114005;28;20196;-64
2021/06/08 10:00:00;;;;;;;2.15;1.73;;;22.60;56.00;;;;;;5112740;28;20173;-64
2021/06/08 10:02:44;;;;;;;3.08;1.80;;;22.70;56.00;;;;;;5113274;28;20177;-65
2021/06/08 10:05:32;;;;;;;2.08;1.83;;;22.70;56.00;;;;;;5114305;28;20185;-65
2021/06/08 10:08:00;;;;;;;3.65;2.00;;;22.70;55.90;;;;;;5113107;28;20227;-65
2021/06/08 10:10:45;;;;;;;2.47;2.13;;;22.70;55.90;;;;;;5113159;28;20184;-64
2021/06/08 10:13:14;;;;;;;3.45;2.15;;;22.70;55.90;;;;;;5113844;28;20286;-64
2021/06/08 10:15:51;;;;;;;2.65;2.15;;;22.70;55.90;;;;;;5111481;28;20172;-64
2021/06/08 10:18:16;;;;;;;2.08;1.88;;;22.70;55.90;;;;;;5113667;28;20201;-65
2021/06/08 10:20:52;;;;;;;3.35;2.08;;;22.70;55.90;;;;;;5113031;28;20212;-64
2021/06/08 10:23:27;;;;;;;4.13;2.00;;;22.80;56.00;;;;;;5112644;28;20177;-63
2021/06/08 10:26:12;;;;;;;2.28;2.00;;;22.80;56.00;;;;;;5113340;28;20256;-64
2021/06/08 10:28:38;;;;;;;2.20;2.00;;;22.80;55.80;;;;;;5112480;28;20261;-64
2021/06/08 10:31:04;;;;;;;2.55;2.03;;;22.80;55.80;;;;;;5113570;28;20193;-64
2021/06/08 10:33:29;;;;;;;2.17;1.90;;;22.80;55.80;;;;;;5113384;28;20248;-65
2021/06/08 10:35:55;;;;;;;2.33;2.10;;;22.80;55.80;;;;;;5112025;28;20177;-65
2021/06/08 10:38:21;;;;;;;2.15;2.00;;;22.80;55.80;;;;;;5113280;28;20659;-65
2021/06/08 10:40:48;;;;;;;2.70;2.13;;;22.80;55.80;;;;;;5112838;28;20175;-65
2021/06/08 10:43:15;;;;;;;2.45;2.25;;;22.90;55.80;;;;;;5112535;28;20550;-65
2021/06/08 10:45:41;;;;;;;2.08;1.80;;;22.90;55.80;;;;;;5111785;28;20181;-66
2021/06/08 10:48:14;;;;;;;2.03;1.83;;;22.90;55.70;;;;;;5095427;28;20518;-66
2021/06/08 10:50:44;;;;;;;3.55;1.83;;;22.90;55.70;;;;;;5110997;28;20173;-66
2021/06/08 10:53:11;;;;;;;3.05;2.10;;;23.00;55.70;;;;;;5112179;28;20255;-66
2021/06/08 10:55:44;;;;;;;3.25;2.17;;;23.00;55.70;;;;;;5111820;28;20173;-65
2021/06/08 10:58:09;;;;;;;2.40;2.20;;;23.00;55.70;;;;;;5112289;28;20559;-65
2021/06/08 11:00:40;;;;;;;1.90;1.80;;;23.00;55.70;;;;;;5113041;28;20180;-66
2021/06/08 11:03:07;;;;;;;2.95;2.45;;;23.00;55.60;;;;;;5113136;28;20173;-65
2021/06/08 11:05:57;;;;;;;3.58;2.42;;;23.10;55.70;;;;;;5112544;28;20173;-68
2021/06/08 11:09:03;;;;;;;2.13;1.92;;;23.10;55.60;;;;;;5113110;28;20184;-65
2021/06/08 11:11:47;;;;;;;2.30;2.10;;;23.10;55.60;;;;;;5029061;28;20183;-63
2021/06/08 11:14:42;;;;;;;2.58;2.38;;;23.10;55.60;;;;;;5028003;28;20547;-64
2021/06/08 11:17:12;;;;;;;2.55;2.40;;;23.10;55.60;;;;;;5095813;28;20189;-65
2021/06/08 11:19:50;;;;;;;3.22;2.05;;;23.10;55.50;;;;;;5112343;28;20185;-65
2021/06/08 11:22:17;;;;;;;2.50;2.30;;;23.20;55.50;;;;;;5109444;28;20224;-64
2021/06/08 11:24:44;;;;;;;2.60;2.40;;;23.20;55.50;;;;;;5111242;28;20248;-64
2021/06/08 11:27:10;;;;;;;2.55;2.20;;;23.20;55.50;;;;;;5112675;28;20173;-63
2021/06/08 11:29:56;;;;;;;3.63;2.30;;;23.20;55.50;;;;;;5112178;28;20162;-65
2021/06/08 11:32:32;;;;;;;2.35;2.10;;;23.20;55.50;;;;;;5110015;28;20173;-65
2021/06/08 11:35:07;;;;;;;3.80;2.42;;;23.20;55.50;;;;;;5112909;28;20200;-65
2021/06/08 11:37:49;;;;;;;2.55;2.33;;;23.20;55.50;;;;;;5112542;28;20232;-66
2021/06/08 11:40:35;;;;;;;3.42;2.63;;;23.10;55.50;;;;;;5112342;28;20173;-66
2021/06/08 11:43:10;;;;;;;4.25;2.78;;;23.20;55.50;;;;;;5112910;28;20286;-66
2021/06/08 11:45:46;;;;;;;2.88;2.30;;;23.10;55.60;;;;;;5111877;28;20272;-66
2021/06/08 11:48:47;;;;;;;2.97;2.75;;;23.10;55.60;;;;;;5114929;28;20190;-66
2021/06/08 11:51:16;;;;;;;2.88;2.65;;;23.10;55.50;;;;;;5053709;28;20702;-65
2021/06/08 11:54:02;;;;;;;3.15;2.30;;;23.10;55.50;;;;;;5103828;28;20701;-66
2021/06/08 11:56:56;;;;;;;2.90;2.45;;;23.00;55.60;;;;;;5116530;28;20183;-65
2021/06/08 11:59:24;;;;;;;2.88;2.67;;;23.10;55.60;;;;;;5116308;28;20302;-66
2021/06/08 12:02:00;;;;;;;2.83;2.63;;;23.10;55.40;;;;;;5115976;28;20176;-67
2021/06/08 12:04:27;;;;;;;4.03;2.90;;;23.20;55.50;;;;;;5116105;28;20619;-67
2021/06/08 12:07:07;;;;;;;2.70;2.50;;;23.20;55.30;;;;;;5115092;28;20177;-66
2021/06/08 12:09:34;;;;;;;4.60;3.15;;;23.30;55.20;;;;;;5115957;28;20176;-66
2021/06/08 12:12:07;;;;;;;2.53;2.33;;;23.40;55.10;;;;;;5116094;28;20161;-65
2021/06/08 12:14:32;;;;;;;2.40;2.20;;;23.30;55.00;;;;;;5112954;28;20191;-66
2021/06/08 12:16:59;;;;;;;2.90;2.70;;;23.30;55.10;;;;;;5114903;28;20260;-66
2021/06/08 12:19:37;;;;;;;2.92;2.65;;;23.40;55.10;;;;;;5115732;28;20188;-66
2021/06/08 12:22:17;;;;;;;3.00;2.78;;;23.40;55.00;;;;;;5115140;28;20225;-66
2021/06/08 12:24:59;;;;;;;2.90;2.70;;;23.40;55.10;;;;;;5115671;28;20169;-65
2021/06/08 12:27:32;;;;;;;2.92;2.63;;;23.20;55.00;;;;;;5115783;28;20181;-65
2021/06/08 12:30:00;;;;;;;3.50;2.60;;;23.20;55.20;;;;;;5115398;28;20188;-67
2021/06/08 12:32:25;;;;;;;2.83;2.63;;;23.20;55.20;;;;;;5115652;28;20217;-66
2021/06/08 12:34:51;;;;;;;4.00;2.70;;;23.30;55.20;;;;;;5114518;28;20204;-67
2021/06/08 12:37:24;;;;;;;3.20;2.90;;;23.40;55.00;;;;;;5115490;28;20181;-66
2021/06/08 12:39:56;;;;;;;2.78;2.58;;;23.50;54.90;;;;;;5115352;28;20345;-66
2021/06/08 12:42:22;;;;;;;3.10;2.80;;;23.50;54.80;;;;;;5114729;28;20181;-66
2021/06/08 12:44:49;;;;;;;2.85;2.65;;;23.50;54.80;;;;;;5115186;28;20530;-66
2021/06/08 12:47:15;;;;;;;2.58;2.38;;;23.60;54.70;;;;;;5115395;28;20177;-66
2021/06/08 12:49:41;;;;;;;3.08;2.88;;;23.60;54.60;;;;;;5113312;28;20174;-66
2021/06/08 12:52:08;;;;;;;3.00;2.80;;;23.70;54.50;;;;;;5115394;28;20180;-66
2021/06/08 12:54:45;;;;;;;2.80;2.60;;;23.50;54.50;;;;;;5114859;28;20222;-65
2021/06/08 12:57:27;;;;;;;2.88;2.67;;;23.60;54.70;;;;;;5114323;28;20169;-66